Valley Forge, PA (19484)

10:26 AM EDT on August 30, 2015 (GMT -0400)
Sweetbriar | | Change Station
CLOSE
Current Station
Personal Weather Station
Location: King Of Prussia, PA
Elevation: 141 ft
Nearby Weather Stations

Elev 141 ft 40.11 °N, 75.39 °W | Updated 1 minute ago

Clear
Clear
86.0 °F
Feels Like 89 °F
N
0.9
Wind Variable Wind from SW
Gusts 2.0 mph

Today
High -- | Low -- °F
--% Chance of Precip.
Yesterday
High -- | Low -- °F
Precip. -- in
6:27 AM 7:36 PM
Full, 99% visible
Pressure 30.13 in
Visibility 10.0 miles
Clouds Clear
Heat Index 89 °F
Dew Point 68 °F
Humidity 55%
Rainfall 0.00 in
Snow Depth Not available.
UV 5 out of 12
Pollen 9.70 out of 12
Air Quality Not available.
Flu Activity Not available.
METAR KLOM 301415Z AUTO 20003KT 10SM CLR 26/20 A3013 RMK AO1
Pressure 30.13 in
Visibility 10.0 miles
Clouds Clear
Heat Index 89 °F
Dew Point 68 °F
Humidity 55%
Rainfall 0.00 in
Snow Depth Not available.
UV 5 out of 12
Pollen 9.70 out of 12
Air Quality Not available.
Flu Activity Not available.
METAR KLOM 301415Z AUTO 20003KT 10SM CLR 26/20 A3013 RMK AO1

10-Day Weather Forecast

×

Almanac

Astronomy

Aug. 30, 2015 Rise Set
Actual Time
Civil Twilight
Nautical Twilight
Astronomical Twilight
Moon
Length of Visible Light
Length of Day
Tomorrow will be .
, % of the Moon is Illuminated

Today's Extremes

State Highs State Lows

Community

WunderPhotos

Upload Photos

1,850,974 photos uploaded!

WunderBlogs® & News

Nearby

Air Quality

  Air Quality AQ Index Pollutant
Not available.

Snow Depth

Station Depth Elevation

Earthquake Activity

City Distance Mag. Time & Date
Minimum magnitude displayed is 2.5.

Coastal Water Temperatures

Place Temperature

Stations

Nearby Weather Stations

Station Location Temp. Windchill Dew Point Humidity Wind Precip. Elev Updated Type